sensor_id;sensor_type;location;lat;lon;timestamp;pressure;altitude;pressure_sealevel;temperature;humidity
50696;BME280;36665;51.786;21.594;2022-08-21T00:03:30;99687.19;;;19.14;67.92
50696;BME280;36665;51.786;21.594;2022-08-21T00:11:53;99683.09;;;19.00;68.41
50696;BME280;36665;51.786;21.594;2022-08-21T00:20:16;99686.67;;;18.98;68.59
50696;BME280;36665;51.786;21.594;2022-08-21T00:28:40;99684.10;;;19.01;68.87
50696;BME280;36665;51.786;21.594;2022-08-21T00:37:03;99681.27;;;18.97;68.84
50696;BME280;36665;51.786;21.594;2022-08-21T00:45:27;99679.73;;;18.87;68.73
50696;BME280;36665;51.786;21.594;2022-08-21T00:53:54;99676.80;;;18.64;68.67
50696;BME280;36665;51.786;21.594;2022-08-21T01:02:19;99667.64;;;18.54;69.37
50696;BME280;36665;51.786;21.594;2022-08-21T01:10:43;99656.70;;;18.52;69.36
50696;BME280;36665;51.786;21.594;2022-08-21T01:19:08;99657.54;;;18.50;69.73
50696;BME280;36665;51.786;21.594;2022-08-21T01:27:34;99651.85;;;18.39;69.46
50696;BME280;36665;51.786;21.594;2022-08-21T01:35:57;99652.76;;;18.24;69.61
50696;BME280;36665;51.786;21.594;2022-08-21T01:44:24;99646.61;;;18.09;69.90
50696;BME280;36665;51.786;21.594;2022-08-21T01:52:49;99635.91;;;18.00;70.18
50696;BME280;36665;51.786;21.594;2022-08-21T02:01:12;99629.63;;;17.95;70.19
50696;BME280;36665;51.786;21.594;2022-08-21T02:09:35;99626.70;;;17.85;70.08
50696;BME280;36665;51.786;21.594;2022-08-21T02:18:04;99623.92;;;17.78;70.47
50696;BME280;36665;51.786;21.594;2022-08-21T02:26:29;99618.13;;;17.82;70.59
50696;BME280;36665;51.786;21.594;2022-08-21T02:34:52;99612.48;;;17.85;70.95
50696;BME280;36665;51.786;21.594;2022-08-21T02:43:16;99604.88;;;17.81;70.99
50696;BME280;36665;51.786;21.594;2022-08-21T02:51:40;99610.98;;;17.73;71.13
50696;BME280;36665;51.786;21.594;2022-08-21T03:00:05;99604.77;;;17.60;71.36
50696;BME280;36665;51.786;21.594;2022-08-21T03:08:30;99601.26;;;17.46;71.65
50696;BME280;36665;51.786;21.594;2022-08-21T03:16:53;99604.16;;;17.28;71.62
50696;BME280;36665;51.786;21.594;2022-08-21T03:25:16;99601.27;;;17.15;71.82
50696;BME280;36665;51.786;21.594;2022-08-21T03:33:44;99601.60;;;17.06;71.95
50696;BME280;36665;51.786;21.594;2022-08-21T03:42:08;99600.98;;;16.99;72.21
50696;BME280;36665;51.786;21.594;2022-08-21T03:50:34;99595.38;;;16.88;72.30
50696;BME280;36665;51.786;21.594;2022-08-21T03:59:03;99598.77;;;16.85;72.81
50696;BME280;36665;51.786;21.594;2022-08-21T04:07:26;99597.75;;;16.88;72.68
50696;BME280;36665;51.786;21.594;2022-08-21T04:15:49;99590.84;;;16.96;72.95
50696;BME280;36665;51.786;21.594;2022-08-21T04:24:12;99583.92;;;17.11;73.34
50696;BME280;36665;51.786;21.594;2022-08-21T04:32:37;99586.89;;;17.33;73.17
50696;BME280;36665;51.786;21.594;2022-08-21T04:41:00;99582.40;;;17.53;73.18
50696;BME280;36665;51.786;21.594;2022-08-21T04:49:23;99586.63;;;17.70;73.63
50696;BME280;36665;51.786;21.594;2022-08-21T04:57:46;99591.80;;;17.84;73.35
50696;BME280;36665;51.786;21.594;2022-08-21T05:06:12;99589.52;;;18.01;73.54
50696;BME280;36665;51.786;21.594;2022-08-21T05:14:37;99591.02;;;18.30;73.65
50696;BME280;36665;51.786;21.594;2022-08-21T05:23:00;99593.13;;;18.59;73.67
50696;BME280;36665;51.786;21.594;2022-08-21T05:31:23;99598.33;;;19.05;74.25
50696;BME280;36665;51.786;21.594;2022-08-21T05:39:46;99606.34;;;19.91;75.45
50696;BME280;36665;51.786;21.594;2022-08-21T05:48:30;99612.98;;;20.55;74.46
50696;BME280;36665;51.786;21.594;2022-08-21T05:56:54;99616.85;;;20.98;74.56
50696;BME280;36665;51.786;21.594;2022-08-21T06:05:17;99613.20;;;21.10;73.67
50696;BME280;36665;51.786;21.594;2022-08-21T06:13:59;99601.05;;;21.11;73.07
50696;BME280;36665;51.786;21.594;2022-08-21T06:22:22;99602.75;;;21.38;73.81
50696;BME280;36665;51.786;21.594;2022-08-21T06:30:45;99597.11;;;21.76;72.86
50696;BME280;36665;51.786;21.594;2022-08-21T06:39:09;99594.95;;;22.12;72.83
50696;BME280;36665;51.786;21.594;2022-08-21T06:47:52;99598.74;;;22.72;72.72
50696;BME280;36665;51.786;21.594;2022-08-21T06:56:15;99604.24;;;23.18;71.88
50696;BME280;36665;51.786;21.594;2022-08-21T07:04:38;99597.35;;;23.21;71.11
50696;BME280;36665;51.786;21.594;2022-08-21T07:13:01;99603.69;;;23.38;71.53
50696;BME280;36665;51.786;21.594;2022-08-21T07:21:25;99611.49;;;23.82;71.27
50696;BME280;36665;51.786;21.594;2022-08-21T07:29:48;99613.11;;;24.25;70.50
50696;BME280;36665;51.786;21.594;2022-08-21T07:38:11;99604.36;;;24.37;69.79
50696;BME280;36665;51.786;21.594;2022-08-21T07:46:34;99597.76;;;24.41;69.57
50696;BME280;36665;51.786;21.594;2022-08-21T07:54:58;99590.05;;;24.31;69.34
50696;BME280;36665;51.786;21.594;2022-08-21T08:03:27;99581.81;;;24.54;69.51
50696;BME280;36665;51.786;21.594;2022-08-21T08:11:51;99574.77;;;24.79;69.07
50696;BME280;36665;51.786;21.594;2022-08-21T08:20:17;99570.39;;;25.06;68.94
50696;BME280;36665;51.786;21.594;2022-08-21T08:28:41;99570.00;;;25.13;67.61
50696;BME280;36665;51.786;21.594;2022-08-21T08:37:07;99559.73;;;25.11;67.12
50696;BME280;36665;51.786;21.594;2022-08-21T08:45:34;99559.70;;;25.08;67.17
50696;BME280;36665;51.786;21.594;2022-08-21T08:54:02;99557.64;;;25.40;66.69
50696;BME280;36665;51.786;21.594;2022-08-21T09:02:28;99557.06;;;25.78;65.28
50696;BME280;36665;51.786;21.594;2022-08-21T09:11:03;99560.76;;;25.72;63.62
50696;BME280;36665;51.786;21.594;2022-08-21T09:27:58;99557.25;;;25.53;63.42
50696;BME280;36665;51.786;21.594;2022-08-21T09:36:31;99556.11;;;26.09;62.83
50696;BME280;36665;51.786;21.594;2022-08-21T09:45:16;99556.02;;;26.11;61.59
50696;BME280;36665;51.786;21.594;2022-08-21T09:53:48;99551.92;;;26.21;61.63
50696;BME280;36665;51.786;21.594;2022-08-21T10:10:53;99545.80;;;26.60;60.95
50696;BME280;36665;51.786;21.594;2022-08-21T10:28:00;99548.27;;;25.51;60.36
50696;BME280;36665;51.786;21.594;2022-08-21T11:12:09;99526.64;;;26.68;60.18
50696;BME280;36665;51.786;21.594;2022-08-21T11:20:43;99526.45;;;26.85;59.86
50696;BME280;36665;51.786;21.594;2022-08-21T11:29:28;99526.27;;;26.97;59.14
50696;BME280;36665;51.786;21.594;2022-08-21T11:55:44;99517.09;;;26.62;58.72
50696;BME280;36665;51.786;21.594;2022-08-21T12:04:26;99520.90;;;25.95;58.66
50696;BME280;36665;51.786;21.594;2022-08-21T12:12:51;99518.88;;;25.41;59.51
50696;BME280;36665;51.786;21.594;2022-08-21T12:21:22;99515.23;;;25.53;59.85
50696;BME280;36665;51.786;21.594;2022-08-21T12:30:41;99514.69;;;25.71;59.42
50696;BME280;36665;51.786;21.594;2022-08-21T12:55:48;99532.36;;;25.65;59.01
50696;BME280;36665;51.786;21.594;2022-08-21T13:04:16;99534.66;;;25.33;59.42
50696;BME280;36665;51.786;21.594;2022-08-21T13:12:41;99533.91;;;25.01;60.46
50696;BME280;36665;51.786;21.594;2022-08-21T13:21:10;99532.48;;;25.16;61.13
50696;BME280;36665;51.786;21.594;2022-08-21T13:29:33;99536.15;;;25.28;60.50
50696;BME280;36665;51.786;21.594;2022-08-21T13:38:00;99527.20;;;25.00;60.40
50696;BME280;36665;51.786;21.594;2022-08-21T13:46:28;99529.23;;;24.99;62.33
50696;BME280;36665;51.786;21.594;2022-08-21T13:55:11;99520.13;;;25.00;62.81
50696;BME280;36665;51.786;21.594;2022-08-21T14:03:42;99515.80;;;24.92;62.82
50696;BME280;36665;51.786;21.594;2022-08-21T14:12:18;99522.06;;;25.05;63.64
50696;BME280;36665;51.786;21.594;2022-08-21T14:20:46;99528.09;;;24.97;63.18
50696;BME280;36665;51.786;21.594;2022-08-21T14:29:09;99531.04;;;24.87;63.34
50696;BME280;36665;51.786;21.594;2022-08-21T14:37:33;99523.65;;;24.84;63.82
50696;BME280;36665;51.786;21.594;2022-08-21T14:45:58;99525.59;;;24.78;63.68
50696;BME280;36665;51.786;21.594;2022-08-21T14:54:28;99518.60;;;24.63;63.49
50696;BME280;36665;51.786;21.594;2022-08-21T15:02:53;99521.94;;;24.56;64.06
50696;BME280;36665;51.786;21.594;2022-08-21T15:11:19;99528.27;;;24.46;63.93
50696;BME280;36665;51.786;21.594;2022-08-21T15:20:04;99532.20;;;24.34;62.53
50696;BME280;36665;51.786;21.594;2022-08-21T15:28:28;99533.92;;;24.16;62.15
50696;BME280;36665;51.786;21.594;2022-08-21T15:36:55;99539.73;;;23.99;61.84
50696;BME280;36665;51.786;21.594;2022-08-21T15:45:19;99543.48;;;23.84;61.72
50696;BME280;36665;51.786;21.594;2022-08-21T15:53:45;99547.19;;;23.73;61.67
50696;BME280;36665;51.786;21.594;2022-08-21T16:02:21;99547.27;;;23.59;61.46
50696;BME280;36665;51.786;21.594;2022-08-21T16:10:45;99540.21;;;23.47;61.34
50696;BME280;36665;51.786;21.594;2022-08-21T16:19:10;99539.93;;;23.36;61.68
50696;BME280;36665;51.786;21.594;2022-08-21T16:27:35;99536.30;;;23.20;61.48
50696;BME280;36665;51.786;21.594;2022-08-21T16:36:04;99530.62;;;23.07;61.69
50696;BME280;36665;51.786;21.594;2022-08-21T16:44:27;99533.04;;;22.93;61.92
50696;BME280;36665;51.786;21.594;2022-08-21T16:52:53;99543.14;;;22.75;62.27
50696;BME280;36665;51.786;21.594;2022-08-21T17:01:19;99542.92;;;22.56;62.52
50696;BME280;36665;51.786;21.594;2022-08-21T17:09:44;99546.92;;;22.39;62.55
50696;BME280;36665;51.786;21.594;2022-08-21T17:18:12;99551.09;;;22.31;62.91
50696;BME280;36665;51.786;21.594;2022-08-21T17:26:36;99552.32;;;22.26;63.19
50696;BME280;36665;51.786;21.594;2022-08-21T17:34:59;99559.36;;;22.15;63.48
50696;BME280;36665;51.786;21.594;2022-08-21T17:43:23;99563.34;;;21.97;63.65
50696;BME280;36665;51.786;21.594;2022-08-21T17:51:47;99571.96;;;21.68;63.76
50696;BME280;36665;51.786;21.594;2022-08-21T18:00:14;99574.77;;;21.45;64.10
50696;BME280;36665;51.786;21.594;2022-08-21T18:08:38;99572.75;;;21.28;64.10
50696;BME280;36665;51.786;21.594;2022-08-21T18:17:10;99571.81;;;21.04;64.32
50696;BME280;36665;51.786;21.594;2022-08-21T18:25:35;99578.47;;;20.77;64.79
50696;BME280;36665;51.786;21.594;2022-08-21T18:34:02;99581.44;;;20.58;65.08
50696;BME280;36665;51.786;21.594;2022-08-21T18:42:35;99593.00;;;20.44;65.44
50696;BME280;36665;51.786;21.594;2022-08-21T18:50:59;99592.37;;;20.26;65.52
50696;BME280;36665;51.786;21.594;2022-08-21T18:59:26;99595.14;;;20.03;65.82
50696;BME280;36665;51.786;21.594;2022-08-21T19:07:51;99602.89;;;19.91;66.09
50696;BME280;36665;51.786;21.594;2022-08-21T19:16:16;99609.64;;;19.85;66.33
50696;BME280;36665;51.786;21.594;2022-08-21T19:24:41;99608.56;;;19.75;66.33
50696;BME280;36665;51.786;21.594;2022-08-21T19:33:18;99610.48;;;19.60;66.58
50696;BME280;36665;51.786;21.594;2022-08-21T19:41:51;99615.44;;;19.51;66.95
50696;BME280;36665;51.786;21.594;2022-08-21T19:50:17;99614.59;;;19.52;67.47
50696;BME280;36665;51.786;21.594;2022-08-21T19:58:44;99614.79;;;19.49;67.49
50696;BME280;36665;51.786;21.594;2022-08-21T20:07:12;99615.43;;;19.39;67.75
50696;BME280;36665;51.786;21.594;2022-08-21T20:15:36;99613.84;;;19.34;67.77
50696;BME280;36665;51.786;21.594;2022-08-21T20:23:59;99608.85;;;19.27;67.87
50696;BME280;36665;51.786;21.594;2022-08-21T20:32:26;99606.41;;;19.16;68.02
50696;BME280;36665;51.786;21.594;2022-08-21T20:40:51;99604.16;;;19.11;68.40
50696;BME280;36665;51.786;21.594;2022-08-21T20:49:20;99593.46;;;18.99;68.54
50696;BME280;36665;51.786;21.594;2022-08-21T20:57:55;99592.98;;;18.91;68.57
50696;BME280;36665;51.786;21.594;2022-08-21T21:06:25;99596.11;;;18.88;68.93
50696;BME280;36665;51.786;21.594;2022-08-21T21:14:55;99600.42;;;18.79;68.90
50696;BME280;36665;51.786;21.594;2022-08-21T21:23:36;99598.74;;;18.72;69.20
50696;BME280;36665;51.786;21.594;2022-08-21T21:32:02;99597.69;;;18.70;69.57
50696;BME280;36665;51.786;21.594;2022-08-21T21:58:17;99592.91;;;18.61;69.96
50696;BME280;36665;51.786;21.594;2022-08-21T22:15:13;99595.05;;;18.51;70.11
50696;BME280;36665;51.786;21.594;2022-08-21T22:23:55;99595.71;;;18.42;70.39
50696;BME280;36665;51.786;21.594;2022-08-21T22:41:18;99594.09;;;18.31;70.79
50696;BME280;36665;51.786;21.594;2022-08-21T22:49:51;99596.98;;;18.25;71.00
50696;BME280;36665;51.786;21.594;2022-08-21T22:58:32;99585.48;;;18.17;70.85
50696;BME280;36665;51.786;21.594;2022-08-21T23:07:01;99588.91;;;18.06;71.17
50696;BME280;36665;51.786;21.594;2022-08-21T23:24:54;99588.77;;;18.03;71.44
50696;BME280;36665;51.786;21.594;2022-08-21T23:42:07;99594.98;;;18.24;72.30
